Terminal Aerodrome Forecast
Issued by NWS

Home | Current Version | Previous Version | Text Only | Print | Product List | Glossary Off
Versions: 1 2 3 4 5 6 7 8 9 10 11 12 13 14 15 16

000
FTUS43 KFGF 230500
TAFBJI
TAF
KBJI 230520Z 2306/2406 VRB06KT P6SM BKN250
     FM231200 12012KT P6SM BKN050
     FM232000 12015G23KT 5SM -RA OVC040
     FM240200 11012KT 4SM -RA OVC025=

USA.gov is the U.S. government's official web portal to all federal, state and local government web resources and services.